sensor_id;sensor_type;location;lat;lon;timestamp;P1;durP1;ratioP1;P2;durP2;ratioP2
70818;SDS011;58439;51.046;13.692;2022-12-10T03:25:48;52.38;;;19.42;;
70818;SDS011;58439;51.046;13.692;2022-12-10T03:28:32;51.28;;;18.63;;
70818;SDS011;58439;51.046;13.692;2022-12-10T03:31:34;58.10;;;18.75;;
70818;SDS011;58439;51.046;13.692;2022-12-10T03:34:23;51.05;;;19.02;;
70818;SDS011;58439;51.046;13.692;2022-12-10T03:37:26;57.22;;;19.10;;
70818;SDS011;58439;51.046;13.692;2022-12-10T03:40:23;56.00;;;20.33;;
70818;SDS011;58439;51.046;13.692;2022-12-10T03:44:50;57.08;;;19.13;;
70818;SDS011;58439;51.046;13.692;2022-12-10T03:47:34;55.28;;;18.98;;
70818;SDS011;58439;51.046;13.692;2022-12-10T03:50:27;53.38;;;18.95;;
70818;SDS011;58439;51.046;13.692;2022-12-10T03:53:14;61.47;;;19.70;;
70818;SDS011;58439;51.046;13.692;2022-12-10T03:56:06;60.20;;;19.90;;
70818;SDS011;58439;51.046;13.692;2022-12-10T03:58:58;62.22;;;20.08;;
70818;SDS011;58439;51.046;13.692;2022-12-10T04:01:43;55.20;;;19.67;;
70818;SDS011;58439;51.046;13.692;2022-12-10T04:04:55;60.65;;;20.40;;
70818;SDS011;58439;51.046;13.692;2022-12-10T04:07:54;69.05;;;20.30;;
70818;SDS011;58439;51.046;13.692;2022-12-10T04:11:16;70.10;;;20.90;;
70818;SDS011;58439;51.046;13.692;2022-12-10T04:14:14;60.25;;;19.98;;
70818;SDS011;58439;51.046;13.692;2022-12-10T04:17:16;57.10;;;20.40;;
70818;SDS011;58439;51.046;13.692;2022-12-10T04:20:29;60.45;;;19.80;;
70818;SDS011;58439;51.046;13.692;2022-12-10T04:32:08;57.45;;;18.20;;
70818;SDS011;58439;51.046;13.692;2022-12-10T05:04:28;48.88;;;17.35;;
70818;SDS011;58439;51.046;13.692;2022-12-10T05:07:33;57.05;;;19.13;;
70818;SDS011;58439;51.046;13.692;2022-12-10T05:11:06;57.13;;;19.13;;
70818;SDS011;58439;51.046;13.692;2022-12-10T05:14:43;49.72;;;16.38;;
70818;SDS011;58439;51.046;13.692;2022-12-10T05:17:25;49.58;;;18.30;;
70818;SDS011;58439;51.046;13.692;2022-12-10T05:20:22;50.55;;;17.65;;
70818;SDS011;58439;51.046;13.692;2022-12-10T05:33:49;54.22;;;17.02;;
70818;SDS011;58439;51.046;13.692;2022-12-10T05:48:11;50.67;;;17.38;;
70818;SDS011;58439;51.046;13.692;2022-12-10T05:51:12;50.97;;;17.25;;
70818;SDS011;58439;51.046;13.692;2022-12-10T05:53:51;51.17;;;17.27;;
70818;SDS011;58439;51.046;13.692;2022-12-10T05:56:43;53.55;;;17.92;;
70818;SDS011;58439;51.046;13.692;2022-12-10T05:59:41;47.40;;;17.77;;
70818;SDS011;58439;51.046;13.692;2022-12-10T06:02:36;49.92;;;16.75;;
70818;SDS011;58439;51.046;13.692;2022-12-10T06:11:15;51.08;;;17.38;;
70818;SDS011;58439;51.046;13.692;2022-12-10T06:15:43;51.75;;;16.52;;
70818;SDS011;58439;51.046;13.692;2022-12-10T06:18:32;47.30;;;16.77;;
70818;SDS011;58439;51.046;13.692;2022-12-10T06:21:18;56.10;;;17.58;;
70818;SDS011;58439;51.046;13.692;2022-12-10T06:28:15;51.63;;;15.88;;
70818;SDS011;58439;51.046;13.692;2022-12-10T06:30:53;58.38;;;17.55;;
70818;SDS011;58439;51.046;13.692;2022-12-10T06:33:24;59.92;;;16.65;;
70818;SDS011;58439;51.046;13.692;2022-12-10T06:36:38;49.08;;;17.10;;
70818;SDS011;58439;51.046;13.692;2022-12-10T06:40:05;49.58;;;17.55;;
70818;SDS011;58439;51.046;13.692;2022-12-10T06:43:36;55.15;;;19.05;;
70818;SDS011;58439;51.046;13.692;2022-12-10T06:46:40;49.80;;;17.42;;
70818;SDS011;58439;51.046;13.692;2022-12-10T06:49:22;56.17;;;18.73;;
70818;SDS011;58439;51.046;13.692;2022-12-10T06:54:45;60.00;;;18.33;;
70818;SDS011;58439;51.046;13.692;2022-12-10T06:57:27;56.08;;;18.00;;
70818;SDS011;58439;51.046;13.692;2022-12-10T07:00:16;54.85;;;19.15;;
70818;SDS011;58439;51.046;13.692;2022-12-10T07:07:25;50.40;;;17.90;;
70818;SDS011;58439;51.046;13.692;2022-12-10T07:11:54;49.10;;;17.65;;
70818;SDS011;58439;51.046;13.692;2022-12-10T07:50:28;58.63;;;18.17;;
70818;SDS011;58439;51.046;13.692;2022-12-10T08:09:06;58.47;;;19.15;;
70818;SDS011;58439;51.046;13.692;2022-12-10T10:55:48;49.88;;;16.70;;
70818;SDS011;58439;51.046;13.692;2022-12-10T12:37:44;46.60;;;16.60;;
70818;SDS011;58439;51.046;13.692;2022-12-10T12:45:56;40.17;;;16.80;;
70818;SDS011;58439;51.046;13.692;2022-12-10T21:07:15;51.88;;;18.13;;
70818;SDS011;58439;51.046;13.692;2022-12-10T21:19:35;48.22;;;15.35;;
70818;SDS011;58439;51.046;13.692;2022-12-10T21:22:03;47.95;;;18.50;;
70818;SDS011;58439;51.046;13.692;2022-12-10T21:40:08;40.25;;;15.57;;
70818;SDS011;58439;51.046;13.692;2022-12-10T21:50:06;44.17;;;17.42;;
70818;SDS011;58439;51.046;13.692;2022-12-10T21:52:46;42.20;;;17.35;;
70818;SDS011;58439;51.046;13.692;2022-12-10T21:55:43;47.05;;;17.23;;
70818;SDS011;58439;51.046;13.692;2022-12-10T21:58:30;43.83;;;16.98;;
70818;SDS011;58439;51.046;13.692;2022-12-10T22:05:24;52.83;;;19.23;;
70818;SDS011;58439;51.046;13.692;2022-12-10T22:12:13;44.10;;;15.98;;
70818;SDS011;58439;51.046;13.692;2022-12-10T22:15:04;40.58;;;14.27;;
70818;SDS011;58439;51.046;13.692;2022-12-10T22:19:08;42.53;;;15.68;;
70818;SDS011;58439;51.046;13.692;2022-12-10T22:21:52;25.77;;;10.43;;
70818;SDS011;58439;51.046;13.692;2022-12-10T22:24:21;46.58;;;17.15;;
70818;SDS011;58439;51.046;13.692;2022-12-10T22:26:50;45.05;;;16.70;;
70818;SDS011;58439;51.046;13.692;2022-12-10T22:29:18;46.45;;;17.92;;
70818;SDS011;58439;51.046;13.692;2022-12-10T22:31:46;50.13;;;18.48;;
70818;SDS011;58439;51.046;13.692;2022-12-10T22:35:01;44.20;;;17.77;;
70818;SDS011;58439;51.046;13.692;2022-12-10T22:37:29;40.33;;;16.75;;
70818;SDS011;58439;51.046;13.692;2022-12-10T22:39:58;46.83;;;17.35;;
70818;SDS011;58439;51.046;13.692;2022-12-10T22:42:31;49.70;;;17.90;;
70818;SDS011;58439;51.046;13.692;2022-12-10T22:45:05;47.33;;;18.70;;
70818;SDS011;58439;51.046;13.692;2022-12-10T22:47:36;48.72;;;18.52;;
70818;SDS011;58439;51.046;13.692;2022-12-10T22:50:04;51.78;;;16.85;;
70818;SDS011;58439;51.046;13.692;2022-12-10T22:52:57;41.78;;;17.77;;
70818;SDS011;58439;51.046;13.692;2022-12-10T22:55:28;41.47;;;16.65;;
70818;SDS011;58439;51.046;13.692;2022-12-10T22:57:57;42.38;;;16.85;;
70818;SDS011;58439;51.046;13.692;2022-12-10T23:01:29;50.28;;;17.70;;
70818;SDS011;58439;51.046;13.692;2022-12-10T23:03:57;47.25;;;18.08;;
70818;SDS011;58439;51.046;13.692;2022-12-10T23:06:28;41.85;;;17.02;;
70818;SDS011;58439;51.046;13.692;2022-12-10T23:09:13;40.00;;;16.25;;
70818;SDS011;58439;51.046;13.692;2022-12-10T23:11:47;40.78;;;15.93;;
70818;SDS011;58439;51.046;13.692;2022-12-10T23:14:44;43.35;;;16.80;;
70818;SDS011;58439;51.046;13.692;2022-12-10T23:17:36;38.90;;;15.77;;
70818;SDS011;58439;51.046;13.692;2022-12-10T23:20:04;42.25;;;16.25;;
70818;SDS011;58439;51.046;13.692;2022-12-10T23:22:33;40.45;;;16.15;;
70818;SDS011;58439;51.046;13.692;2022-12-10T23:25:01;42.88;;;16.85;;
70818;SDS011;58439;51.046;13.692;2022-12-10T23:27:30;37.60;;;16.05;;
70818;SDS011;58439;51.046;13.692;2022-12-10T23:46:39;46.58;;;16.67;;
70818;SDS011;58439;51.046;13.692;2022-12-10T23:49:06;39.95;;;17.02;;
70818;SDS011;58439;51.046;13.692;2022-12-10T23:51:34;50.25;;;19.25;;
70818;SDS011;58439;51.046;13.692;2022-12-10T23:54:02;54.60;;;18.02;;
70818;SDS011;58439;51.046;13.692;2022-12-10T23:56:34;48.33;;;17.67;;
70818;SDS011;58439;51.046;13.692;2022-12-10T23:59:20;45.45;;;16.50;;
